Time;durP1;ratioP1;P1;durP2;ratioP2;P2;SDS_P1;SDS_P2;PMS_P1;PMS_P2;Temp;Humidity;BMP_temperature;BMP_pressure;BME280_temperature;BME280_humidity;BME280_pressure;Samples;Min_cycle;Max_cycle;Signal;HPM_P1;HPM_P2
2024/01/30 00:02:45;;;;;;;1.00;0.90;;;18.70;43.10;;;;;;8359827;28;20025;-55
2024/01/30 00:06:46;;;;;;;6.45;1.52;;;18.70;43.10;;;;;;8359770;28;20086;-54
2024/01/30 00:10:47;;;;;;;1.25;1.02;;;18.70;43.10;;;;;;8359613;28;20057;-54
2024/01/30 00:14:48;;;;;;;1.15;1.05;;;18.70;43.10;;;;;;8359880;28;20399;-55
2024/01/30 00:18:49;;;;;;;1.15;0.90;;;18.60;43.10;;;;;;8359677;28;20033;-55
2024/01/30 00:22:50;;;;;;;1.20;1.10;;;18.70;43.20;;;;;;8359557;28;20442;-54
2024/01/30 00:26:51;;;;;;;1.55;1.15;;;18.60;43.10;;;;;;8358099;28;20541;-55
2024/01/30 00:30:51;;;;;;;1.05;1.00;;;18.60;43.10;;;;;;8359644;28;20552;-53
2024/01/30 00:34:52;;;;;;;1.20;0.80;;;18.60;43.10;;;;;;8359339;28;20429;-54
2024/01/30 00:38:53;;;;;;;1.48;1.10;;;18.60;43.10;;;;;;8359731;28;20121;-54
2024/01/30 00:42:53;;;;;;;5.70;0.90;;;18.60;43.10;;;;;;8359284;28;20087;-55
2024/01/30 00:46:54;;;;;;;0.88;0.80;;;18.60;43.10;;;;;;8365346;28;20039;-53
2024/01/30 00:50:55;;;;;;;1.88;1.10;;;18.60;43.10;;;;;;8365252;28;20119;-55
2024/01/30 00:54:55;;;;;;;1.33;0.93;;;18.60;43.10;;;;;;8365160;28;20580;-54
2024/01/30 00:58:56;;;;;;;2.47;1.37;;;18.60;43.10;;;;;;8365166;28;20367;-54
2024/01/30 01:02:57;;;;;;;1.33;0.93;;;18.60;43.10;;;;;;8364750;28;20275;-55
2024/01/30 01:06:57;;;;;;;0.93;0.90;;;18.60;43.10;;;;;;8364792;28;20660;-55
2024/01/30 01:10:58;;;;;;;0.90;0.90;;;18.60;43.10;;;;;;8364472;28;20498;-54
2024/01/30 01:14:59;;;;;;;1.23;1.10;;;18.60;43.10;;;;;;8364693;28;20033;-54
2024/01/30 01:19:00;;;;;;;2.90;0.95;;;18.60;43.10;;;;;;8346566;28;20072;-55
2024/01/30 01:23:00;;;;;;;1.63;1.15;;;18.60;43.10;;;;;;8364236;28;20104;-54
2024/01/30 01:27:01;;;;;;;1.08;0.98;;;18.60;43.10;;;;;;8364232;28;20498;-54
2024/01/30 01:31:05;;;;;;;0.70;0.70;;;18.60;43.10;;;;;;8364142;28;20025;-54
2024/01/30 01:35:06;;;;;;;1.40;0.88;;;18.60;43.10;;;;;;8364086;28;20041;-55
2024/01/30 01:39:06;;;;;;;1.00;0.98;;;18.50;43.10;;;;;;8363869;28;20039;-53
2024/01/30 01:43:07;;;;;;;1.50;0.93;;;18.60;43.10;;;;;;8363633;28;20040;-55
2024/01/30 01:47:08;;;;;;;1.10;1.00;;;18.50;43.10;;;;;;8363649;28;20037;-55
2024/01/30 01:51:09;;;;;;;1.10;1.00;;;18.60;43.10;;;;;;8363534;28;20757;-55
2024/01/30 01:55:11;;;;;;;1.13;0.80;;;18.50;43.00;;;;;;8362417;28;20033;-55
2024/01/30 01:59:12;;;;;;;1.95;0.80;;;18.50;43.10;;;;;;8363094;28;20080;-55
2024/01/30 02:03:15;;;;;;;1.60;1.00;;;18.50;43.00;;;;;;8363088;28;20037;-54
2024/01/30 02:07:17;;;;;;;1.00;0.90;;;18.50;43.10;;;;;;8362807;28;20072;-53
2024/01/30 02:11:19;;;;;;;1.88;1.10;;;18.50;43.00;;;;;;8362926;28;20041;-53
2024/01/30 02:15:20;;;;;;;1.08;0.85;;;18.50;43.10;;;;;;8362650;28;20061;-55
2024/01/30 02:19:21;;;;;;;1.20;1.10;;;18.50;43.00;;;;;;8362888;28;20032;-55
2024/01/30 02:23:27;;;;;;;1.92;1.17;;;18.50;43.00;;;;;;8362450;28;20037;-54
2024/01/30 02:27:28;;;;;;;1.58;1.00;;;18.50;43.00;;;;;;8362096;28;20033;-56
2024/01/30 02:31:28;;;;;;;1.88;1.10;;;18.50;43.00;;;;;;8362176;28;20072;-54
2024/01/30 02:35:30;;;;;;;1.33;0.90;;;18.50;43.00;;;;;;8361929;28;20421;-55
2024/01/30 02:39:31;;;;;;;1.20;1.00;;;18.50;43.00;;;;;;8360808;28;20433;-53
2024/01/30 02:43:32;;;;;;;2.00;0.90;;;18.50;43.00;;;;;;8361782;28;20033;-55
2024/01/30 02:47:32;;;;;;;1.23;1.13;;;18.50;43.10;;;;;;8361781;28;20029;-54
2024/01/30 02:51:33;;;;;;;3.78;1.65;;;18.50;43.10;;;;;;8361599;28;20395;-55
2024/01/30 02:55:35;;;;;;;1.63;1.10;;;18.50;43.00;;;;;;8361510;28;20057;-56
2024/01/30 02:59:36;;;;;;;;;;;18.50;43.10;;;;;;8361865;28;20490;-53
2024/01/30 03:03:36;;;;;;;1.05;0.93;;;18.50;43.10;;;;;;8361240;28;19919;-53
2024/01/30 03:07:37;;;;;;;1.13;1.00;;;18.50;43.00;;;;;;8360750;28;20053;-55
2024/01/30 03:11:38;;;;;;;2.17;0.68;;;18.50;43.00;;;;;;8361053;28;20037;-54
2024/01/30 03:15:38;;;;;;;1.48;0.90;;;18.50;43.10;;;;;;8360862;28;20613;-55
2024/01/30 03:19:39;;;;;;;1.60;1.10;;;18.50;43.00;;;;;;8360177;28;20037;-54
2024/01/30 03:23:40;;;;;;;0.93;0.80;;;18.50;43.10;;;;;;8360848;28;20233;-54
2024/01/30 03:27:41;;;;;;;1.02;0.90;;;18.50;43.00;;;;;;8360900;28;20487;-54
2024/01/30 03:31:41;;;;;;;0.90;0.85;;;18.50;43.10;;;;;;8360566;28;20140;-55
2024/01/30 03:35:42;;;;;;;0.80;0.80;;;18.50;43.10;;;;;;8360415;28;20032;-54
2024/01/30 03:39:43;;;;;;;1.02;0.93;;;18.40;43.00;;;;;;8360394;28;20538;-54
2024/01/30 03:43:44;;;;;;;0.67;0.67;;;18.40;43.00;;;;;;8360208;28;20705;-54
2024/01/30 03:47:44;;;;;;;1.10;1.00;;;18.40;43.00;;;;;;8360125;28;20283;-53
2024/01/30 03:51:47;;;;;;;0.80;0.80;;;18.50;43.00;;;;;;8360068;28;20037;-54
2024/01/30 03:55:48;;;;;;;0.88;0.75;;;18.40;43.00;;;;;;8359860;28;20052;-55
2024/01/30 03:59:48;;;;;;;0.90;0.75;;;18.50;43.10;;;;;;8360171;28;20479;-54
2024/01/30 04:03:49;;;;;;;1.40;0.90;;;18.40;43.00;;;;;;8359902;28;20037;-55
2024/01/30 04:07:49;;;;;;;1.17;0.87;;;18.40;43.00;;;;;;8359438;28;20111;-56
2024/01/30 04:11:50;;;;;;;1.13;0.93;;;18.40;43.00;;;;;;8359902;28;20283;-54
2024/01/30 04:15:52;;;;;;;1.00;1.00;;;18.40;43.00;;;;;;8359553;28;20041;-54
2024/01/30 04:19:52;;;;;;;1.05;0.80;;;18.40;43.00;;;;;;8363039;28;20029;-54
2024/01/30 04:23:53;;;;;;;2.13;0.93;;;18.40;43.00;;;;;;8366480;28;20039;-54
2024/01/30 04:27:54;;;;;;;0.98;0.90;;;18.50;43.10;;;;;;8365957;28;20505;-54
2024/01/30 04:31:54;;;;;;;1.05;0.98;;;18.40;43.00;;;;;;8366035;28;20059;-55
2024/01/30 04:35:55;;;;;;;0.90;0.80;;;18.40;43.00;;;;;;8365756;28;20082;-54
2024/01/30 04:39:56;;;;;;;0.93;0.90;;;18.40;43.00;;;;;;8365854;28;20282;-54
2024/01/30 04:43:57;;;;;;;1.10;0.90;;;18.40;43.00;;;;;;8365510;28;20078;-53
2024/01/30 04:47:58;;;;;;;1.50;1.05;;;18.40;43.00;;;;;;8365266;28;20073;-54
2024/01/30 04:51:58;;;;;;;0.75;0.65;;;18.40;43.00;;;;;;8365540;28;20040;-53
2024/01/30 04:55:59;;;;;;;3.63;1.30;;;18.40;43.00;;;;;;8365022;28;20045;-54
2024/01/30 05:00:00;;;;;;;1.00;1.00;;;18.40;43.00;;;;;;8365086;28;20112;-55
2024/01/30 05:04:01;;;;;;;0.90;0.90;;;18.40;43.00;;;;;;8363835;28;20374;-53
2024/01/30 05:08:01;;;;;;;0.95;0.90;;;18.40;43.00;;;;;;8364573;28;20080;-53
2024/01/30 05:12:02;;;;;;;0.77;0.70;;;18.40;43.00;;;;;;8364590;28;20037;-53
2024/01/30 05:16:03;;;;;;;0.90;0.90;;;18.40;43.00;;;;;;8364405;28;20068;-53
2024/01/30 05:20:05;;;;;;;1.00;0.90;;;18.40;43.50;;;;;;8364450;28;20040;-51
2024/01/30 05:24:06;;;;;;;1.00;0.90;;;18.40;43.00;;;;;;8364395;28;20032;-54
2024/01/30 05:28:07;;;;;;;0.82;0.70;;;18.50;43.00;;;;;;8364023;28;20045;-53
2024/01/30 05:32:08;;;;;;;1.00;0.90;;;18.50;42.80;;;;;;8364511;28;20033;-53
2024/01/30 05:36:12;;;;;;;0.75;0.75;;;18.50;42.70;;;;;;8363731;28;20040;-54
2024/01/30 05:40:13;;;;;;;1.20;0.80;;;18.60;42.70;;;;;;8363730;28;20083;-53
2024/01/30 05:44:14;;;;;;;0.80;0.80;;;18.60;42.50;;;;;;8363719;28;20029;-54
2024/01/30 05:48:14;;;;;;;1.08;0.98;;;18.70;42.50;;;;;;8363664;28;20487;-54
2024/01/30 05:52:16;;;;;;;0.80;0.80;;;18.70;42.50;;;;;;8363335;28;20685;-54
2024/01/30 05:56:16;;;;;;;1.00;0.80;;;18.70;42.40;;;;;;8363552;28;20044;-54
2024/01/30 06:00:18;;;;;;;0.75;0.75;;;18.70;42.50;;;;;;8363549;28;20029;-54
2024/01/30 06:04:18;;;;;;;1.23;1.00;;;18.70;42.40;;;;;;8363180;28;20044;-53
2024/01/30 06:08:19;;;;;;;1.13;0.80;;;18.70;42.40;;;;;;8363344;28;20080;-54
2024/01/30 06:12:20;;;;;;;0.75;0.60;;;18.70;42.40;;;;;;8362674;28;20082;-53
2024/01/30 06:16:21;;;;;;;0.70;0.70;;;18.70;42.40;;;;;;8362702;28;20044;-54
2024/01/30 06:20:22;;;;;;;1.00;0.90;;;18.70;42.40;;;;;;8362609;28;20471;-54
2024/01/30 06:24:23;;;;;;;0.77;0.77;;;18.70;42.40;;;;;;8361340;28;20391;-53
2024/01/30 06:28:23;;;;;;;0.82;0.82;;;18.70;42.40;;;;;;8362182;28;20474;-54
2024/01/30 06:32:24;;;;;;;1.00;0.90;;;18.70;42.40;;;;;;8360863;28;20067;-53
2024/01/30 06:36:25;;;;;;;0.88;0.88;;;18.70;42.40;;;;;;8362104;28;20395;-53
2024/01/30 06:40:26;;;;;;;0.77;0.77;;;18.70;42.40;;;;;;8361734;28;20433;-53
2024/01/30 06:44:26;;;;;;;0.65;0.65;;;18.70;42.40;;;;;;8361441;28;20040;-54
2024/01/30 06:48:27;;;;;;;2.00;0.80;;;18.70;42.40;;;;;;8361793;28;20482;-51
2024/01/30 06:52:28;;;;;;;1.60;0.80;;;18.70;42.30;;;;;;8361485;28;20029;-53
2024/01/30 06:56:29;;;;;;;0.70;0.70;;;18.70;42.30;;;;;;8361365;28;20490;-54
2024/01/30 07:00:30;;;;;;;0.60;0.60;;;18.70;42.30;;;;;;8359927;28;20029;-54
2024/01/30 07:04:31;;;;;;;0.60;0.60;;;18.70;42.30;;;;;;8361176;28;20386;-54
2024/01/30 07:08:32;;;;;;;;;;;18.70;42.90;;;;;;8361411;28;20510;-54
2024/01/30 07:12:33;;;;;;;0.80;0.80;;;18.70;42.30;;;;;;8360802;28;20290;-54
2024/01/30 07:16:33;;;;;;;1.40;0.90;;;18.70;42.30;;;;;;8360627;28;20033;-54
2024/01/30 07:20:35;;;;;;;0.95;0.93;;;18.70;42.30;;;;;;8360919;28;20029;-53
2024/01/30 07:24:35;;;;;;;1.13;1.02;;;18.70;42.30;;;;;;8360713;28;20033;-55
2024/01/30 07:28:36;;;;;;;0.82;0.82;;;18.80;42.30;;;;;;8360329;28;20119;-54
2024/01/30 07:32:37;;;;;;;0.98;0.73;;;18.70;42.30;;;;;;8360411;28;20521;-53
2024/01/30 07:36:38;;;;;;;1.02;0.90;;;18.80;42.30;;;;;;8360337;28;20085;-55
2024/01/30 07:40:38;;;;;;;1.08;0.93;;;18.70;42.30;;;;;;8360034;28;20029;-53
2024/01/30 07:44:39;;;;;;;1.08;0.98;;;18.70;42.30;;;;;;8360135;28;20518;-55
2024/01/30 07:48:40;;;;;;;1.00;0.90;;;18.80;42.30;;;;;;8360137;28;20036;-53
2024/01/30 07:52:43;;;;;;;0.95;0.90;;;18.80;42.30;;;;;;8359335;28;20505;-55
2024/01/30 07:56:44;;;;;;;1.15;0.80;;;18.80;42.30;;;;;;8359583;28;20642;-55
2024/01/30 08:00:45;;;;;;;0.80;0.80;;;18.80;42.30;;;;;;8359965;28;20240;-55
2024/01/30 08:04:49;;;;;;;1.15;1.05;;;18.80;42.30;;;;;;8359909;28;20029;-54
2024/01/30 08:08:53;;;;;;;0.65;0.55;;;18.80;42.30;;;;;;8359864;28;20053;-54
2024/01/30 08:12:53;;;;;;;0.88;0.65;;;18.80;42.30;;;;;;8359887;28;20159;-54
2024/01/30 08:16:54;;;;;;;1.00;0.90;;;18.80;42.20;;;;;;8359743;28;20033;-55
2024/01/30 08:20:55;;;;;;;0.80;0.80;;;18.80;42.20;;;;;;8359678;28;20028;-54
2024/01/30 08:24:56;;;;;;;0.80;0.80;;;18.80;42.20;;;;;;8359527;28;20025;-55
2024/01/30 08:28:57;;;;;;;1.60;1.05;;;18.80;42.20;;;;;;8359451;28;20051;-54
2024/01/30 08:32:57;;;;;;;0.82;0.80;;;18.80;42.20;;;;;;8359379;28;20044;-54
2024/01/30 08:36:58;;;;;;;0.95;0.85;;;18.80;42.20;;;;;;8359389;28;20037;-52
2024/01/30 08:40:59;;;;;;;1.30;1.13;;;18.80;42.20;;;;;;8359244;28;20033;-54
2024/01/30 08:44:59;;;;;;;0.90;0.90;;;18.80;42.20;;;;;;8359241;28;20033;-53
2024/01/30 08:49:00;;;;;;;0.85;0.85;;;18.80;42.20;;;;;;8358080;28;20060;-54
2024/01/30 08:53:01;;;;;;;0.77;0.77;;;18.80;42.20;;;;;;8359246;28;20067;-54
2024/01/30 08:57:02;;;;;;;0.88;0.82;;;18.80;42.20;;;;;;8358908;28;20422;-54
2024/01/30 09:01:05;;;;;;;0.80;0.80;;;18.80;42.20;;;;;;8357846;28;20029;-54
2024/01/30 09:05:06;;;;;;;1.17;1.00;;;18.80;42.20;;;;;;8360915;28;20051;-51
2024/01/30 09:09:07;;;;;;;1.10;0.80;;;18.80;42.20;;;;;;8364859;28;20076;-54
2024/01/30 09:13:07;;;;;;;1.20;1.00;;;18.80;42.20;;;;;;8364678;28;20047;-52
2024/01/30 09:17:08;;;;;;;1.05;0.80;;;18.80;42.20;;;;;;8364546;28;20040;-53
2024/01/30 09:21:10;;;;;;;1.35;0.90;;;18.80;42.20;;;;;;8364573;28;20037;-53
2024/01/30 09:25:11;;;;;;;0.70;0.70;;;18.80;42.20;;;;;;8364445;28;20459;-54
2024/01/30 09:29:11;;;;;;;1.00;0.93;;;18.80;42.10;;;;;;8362924;28;20040;-54
2024/01/30 09:33:12;;;;;;;0.80;0.77;;;18.80;42.10;;;;;;8364269;28;20044;-54
2024/01/30 09:37:15;;;;;;;0.98;0.77;;;18.80;42.20;;;;;;8363929;28;20195;-54
2024/01/30 09:41:16;;;;;;;1.13;0.80;;;18.80;42.10;;;;;;8363722;28;20021;-54
2024/01/30 09:45:24;;;;;;;1.38;0.90;;;18.80;42.20;;;;;;8363684;28;20033;-54
2024/01/30 09:49:25;;;;;;;0.90;0.82;;;18.80;42.10;;;;;;8363750;28;20452;-53
2024/01/30 09:53:26;;;;;;;1.27;1.00;;;18.80;42.10;;;;;;8363579;28;20025;-53
2024/01/30 09:57:27;;;;;;;0.65;0.65;;;18.80;42.10;;;;;;8363448;28;20033;-54
2024/01/30 10:01:28;;;;;;;2.20;1.00;;;18.80;42.10;;;;;;8363234;28;20032;-54
2024/01/30 10:05:34;;;;;;;0.88;0.77;;;18.80;42.20;;;;;;8363218;28;20043;-52
2024/01/30 10:09:34;;;;;;;2.25;0.80;;;18.80;42.20;;;;;;8363080;28;20059;-52
2024/01/30 10:13:35;;;;;;;1.00;0.88;;;18.80;42.20;;;;;;8363013;28;20029;-53
2024/01/30 10:17:37;;;;;;;1.00;0.90;;;18.80;42.20;;;;;;8360458;28;20039;-54
2024/01/30 10:21:38;;;;;;;0.95;0.80;;;18.80;42.20;;;;;;8362879;28;20064;-54
2024/01/30 10:25:39;;;;;;;0.85;0.70;;;18.80;42.20;;;;;;8363387;28;20025;-52
2024/01/30 10:29:40;;;;;;;1.13;1.00;;;18.70;42.20;;;;;;8362554;28;20079;-53
2024/01/30 10:33:41;;;;;;;1.15;1.08;;;18.80;42.20;;;;;;8362264;28;20398;-53
2024/01/30 10:37:47;;;;;;;1.55;1.00;;;18.80;42.20;;;;;;8361977;28;20041;-51
2024/01/30 10:41:50;;;;;;;1.17;0.88;;;18.80;42.20;;;;;;8361925;28;20494;-54
2024/01/30 10:45:55;;;;;;;1.10;0.80;;;18.80;42.20;;;;;;8362111;28;20025;-54
2024/01/30 10:49:56;;;;;;;0.80;0.80;;;18.80;42.20;;;;;;8361666;28;20386;-54
2024/01/30 10:53:58;;;;;;;1.05;0.95;;;18.80;42.20;;;;;;8361899;28;20056;-54
2024/01/30 10:57:59;;;;;;;1.02;0.80;;;18.80;42.20;;;;;;8361457;28;20068;-54
2024/01/30 11:02:00;;;;;;;0.80;0.80;;;18.80;42.20;;;;;;8361424;28;20029;-53
2024/01/30 11:06:02;;;;;;;0.80;0.70;;;18.80;42.20;;;;;;8361310;28;20055;-53
2024/01/30 11:10:04;;;;;;;1.30;1.10;;;18.80;42.20;;;;;;8360986;28;20110;-54
2024/01/30 11:14:05;;;;;;;1.10;1.00;;;18.80;42.20;;;;;;8361209;28;20095;-53
2024/01/30 11:18:06;;;;;;;1.33;0.90;;;18.80;42.20;;;;;;8360771;28;20061;-53
2024/01/30 11:22:07;;;;;;;1.00;0.90;;;18.80;42.20;;;;;;8360761;28;20052;-54
2024/01/30 11:26:10;;;;;;;0.90;0.90;;;18.70;42.10;;;;;;8360533;28;20069;-54
2024/01/30 11:30:22;;;;;;;0.82;0.80;;;18.80;42.20;;;;;;8360388;28;20067;-54
2024/01/30 11:34:23;;;;;;;1.20;0.82;;;18.80;42.20;;;;;;8360654;28;20060;-54
2024/01/30 11:38:27;;;;;;;1.02;0.90;;;18.80;42.20;;;;;;8360306;28;20390;-54
2024/01/30 11:42:29;;;;;;;1.15;1.00;;;18.80;42.20;;;;;;8360098;28;20383;-54
2024/01/30 11:46:30;;;;;;;0.88;0.80;;;18.70;42.20;;;;;;8360474;28;20029;-54
2024/01/30 11:50:35;;;;;;;1.02;0.93;;;18.80;42.20;;;;;;8360164;28;20493;-54
2024/01/30 11:54:39;;;;;;;0.77;0.77;;;18.70;42.20;;;;;;8360165;28;20479;-53
2024/01/30 11:58:43;;;;;;;0.73;0.73;;;18.70;42.20;;;;;;8359740;28;20039;-54
2024/01/30 12:02:49;;;;;;;0.90;0.90;;;18.70;42.20;;;;;;8359868;28;20057;-53
2024/01/30 12:06:53;;;;;;;1.40;0.88;;;18.70;42.70;;;;;;8360006;28;20025;-54
2024/01/30 12:11:05;;;;;;;1.08;0.82;;;18.80;42.20;;;;;;8359569;28;20388;-55
2024/01/30 12:15:06;;;;;;;1.10;1.00;;;18.70;42.20;;;;;;8360192;28;20433;-55
2024/01/30 12:19:07;;;;;;;;;;;18.70;42.30;;;;;;8360065;28;20430;-54
2024/01/30 12:23:07;;;;;;;1.10;1.00;;;18.70;42.30;;;;;;8359505;28;19912;-54
2024/01/30 12:27:08;;;;;;;0.93;0.82;;;18.70;42.30;;;;;;8359397;28;20033;-54
2024/01/30 12:31:09;;;;;;;1.80;0.90;;;18.70;42.20;;;;;;8359392;28;20499;-54
2024/01/30 12:35:17;;;;;;;1.55;0.90;;;18.70;42.80;;;;;;8359377;28;20069;-54
2024/01/30 12:39:18;;;;;;;0.80;0.80;;;18.70;42.30;;;;;;8359935;28;20037;-53
2024/01/30 12:43:19;;;;;;;1.00;0.90;;;18.70;42.30;;;;;;8365592;28;20040;-53
2024/01/30 12:47:23;;;;;;;1.02;0.90;;;18.70;42.30;;;;;;8365589;28;20037;-53
2024/01/30 12:51:24;;;;;;;0.95;0.85;;;18.70;42.30;;;;;;8365468;28;20040;-55
2024/01/30 12:55:28;;;;;;;0.90;0.80;;;18.70;42.30;;;;;;8365181;28;20065;-55
2024/01/30 12:59:28;;;;;;;0.70;0.70;;;18.70;42.30;;;;;;8363935;28;20399;-53
2024/01/30 13:03:29;;;;;;;1.20;0.90;;;18.70;42.30;;;;;;8364448;28;20052;-54
2024/01/30 13:07:30;;;;;;;0.93;0.85;;;18.70;42.30;;;;;;8364524;28;20299;-54
2024/01/30 13:11:31;;;;;;;1.58;0.98;;;18.70;42.40;;;;;;8364664;28;20051;-54
2024/01/30 13:15:32;;;;;;;;;;;18.70;42.30;;;;;;8365089;28;20048;-55
2024/01/30 13:19:33;;;;;;;1.00;0.80;;;18.70;42.30;;;;;;8364625;28;19963;-54
2024/01/30 13:23:34;;;;;;;0.88;0.80;;;18.60;42.30;;;;;;8364414;28;20056;-54
2024/01/30 13:27:35;;;;;;;0.70;0.70;;;18.60;42.30;;;;;;8364228;28;20061;-54
2024/01/30 13:31:36;;;;;;;1.55;0.82;;;18.70;42.30;;;;;;8364105;28;20044;-54
2024/01/30 13:35:36;;;;;;;0.98;0.88;;;18.70;42.30;;;;;;8364229;28;20056;-55
2024/01/30 13:39:39;;;;;;;1.00;0.90;;;18.70;42.30;;;;;;8363929;28;20119;-53
2024/01/30 13:43:39;;;;;;;1.25;1.02;;;18.70;42.30;;;;;;8362510;28;20029;-53
2024/01/30 13:47:40;;;;;;;1.10;0.93;;;18.70;42.30;;;;;;8363872;28;20060;-53
2024/01/30 13:51:43;;;;;;;1.10;0.85;;;18.70;42.30;;;;;;8362343;28;20108;-53
2024/01/30 13:55:43;;;;;;;0.82;0.82;;;18.60;42.30;;;;;;8363373;28;20073;-54
2024/01/30 13:59:44;;;;;;;1.05;0.93;;;18.70;42.30;;;;;;8363554;28;20036;-54
2024/01/30 14:03:45;;;;;;;1.10;1.00;;;18.70;42.30;;;;;;8363407;28;20068;-55
2024/01/30 14:07:46;;;;;;;0.70;0.70;;;18.70;42.40;;;;;;8362889;28;20101;-53
2024/01/30 14:11:47;;;;;;;0.95;0.90;;;18.70;42.30;;;;;;8363319;28;20438;-55
2024/01/30 14:15:48;;;;;;;0.70;0.70;;;18.70;42.30;;;;;;8362903;28;20041;-54
2024/01/30 14:19:48;;;;;;;1.27;0.90;;;18.70;42.40;;;;;;8362849;28;20548;-54
2024/01/30 14:23:49;;;;;;;0.88;0.75;;;18.70;42.30;;;;;;8361689;28;20030;-54
2024/01/30 14:27:51;;;;;;;1.13;0.90;;;18.60;42.30;;;;;;8362433;28;20025;-53
2024/01/30 14:31:52;;;;;;;1.05;0.90;;;18.60;42.40;;;;;;8362256;28;20033;-55
2024/01/30 14:35:53;;;;;;;1.17;1.10;;;18.60;42.40;;;;;;8362391;28;20033;-54
2024/01/30 14:39:54;;;;;;;0.70;0.70;;;18.60;42.40;;;;;;8362132;28;20036;-55
2024/01/30 14:43:55;;;;;;;1.65;1.08;;;18.60;42.40;;;;;;8361851;28;20345;-54
2024/01/30 14:47:55;;;;;;;0.65;0.65;;;18.60;42.40;;;;;;8361934;28;20032;-54
2024/01/30 14:51:58;;;;;;;0.73;0.73;;;18.60;42.40;;;;;;8361933;28;20112;-54
2024/01/30 14:55:58;;;;;;;1.25;0.85;;;18.60;42.40;;;;;;8361640;28;20095;-53
2024/01/30 14:59:59;;;;;;;1.42;0.90;;;18.60;42.40;;;;;;8361471;28;20033;-54
2024/01/30 15:04:00;;;;;;;0.70;0.70;;;18.60;42.40;;;;;;8359851;28;20438;-54
2024/01/30 15:08:01;;;;;;;0.75;0.75;;;18.70;42.40;;;;;;8361164;28;20053;-54
2024/01/30 15:12:01;;;;;;;1.10;1.00;;;18.70;42.40;;;;;;8361214;28;20037;-55
2024/01/30 15:16:05;;;;;;;0.80;0.80;;;18.70;42.40;;;;;;8360810;28;20055;-54
2024/01/30 15:20:06;;;;;;;0.95;0.80;;;18.60;42.30;;;;;;8359740;28;20037;-55
2024/01/30 15:24:07;;;;;;;0.80;0.77;;;18.60;42.40;;;;;;8361198;28;20025;-54
2024/01/30 15:28:09;;;;;;;1.10;1.00;;;18.60;42.40;;;;;;8360658;28;20043;-55
2024/01/30 15:32:10;;;;;;;0.73;0.70;;;18.60;42.40;;;;;;8360556;28;20036;-54
2024/01/30 15:36:14;;;;;;;0.95;0.90;;;18.60;42.40;;;;;;8342796;28;20063;-51
2024/01/30 15:40:15;;;;;;;1.00;0.90;;;18.70;42.40;;;;;;8360597;28;20031;-51
2024/01/30 15:44:16;;;;;;;1.15;0.85;;;18.60;42.40;;;;;;8360515;28;20052;-52
2024/01/30 15:48:20;;;;;;;0.95;0.88;;;18.60;42.40;;;;;;8359253;28;20033;-49
2024/01/30 15:52:21;;;;;;;1.20;0.90;;;18.70;42.40;;;;;;8360134;28;20459;-51
2024/01/30 15:56:23;;;;;;;0.90;0.70;;;18.70;42.90;;;;;;8342083;28;20386;-50
2024/01/30 16:00:23;;;;;;;0.95;0.88;;;18.70;42.30;;;;;;8359778;28;20042;-50
2024/01/30 16:04:24;;;;;;;0.80;0.80;;;18.70;42.30;;;;;;8360091;28;20029;-49
2024/01/30 16:08:26;;;;;;;0.65;0.60;;;18.60;42.30;;;;;;8356484;28;20053;-52
2024/01/30 16:12:28;;;;;;;0.70;0.70;;;18.60;42.40;;;;;;8315986;28;20037;-52
2024/01/30 16:16:28;;;;;;;;;;;18.60;42.40;;;;;;8360827;28;20069;-51
2024/01/30 16:20:29;;;;;;;0.73;0.73;;;18.60;42.40;;;;;;8336487;28;19909;-50
2024/01/30 16:24:30;;;;;;;1.33;0.80;;;18.60;42.50;;;;;;8363882;28;20075;-51
2024/01/30 16:28:32;;;;;;;1.00;0.90;;;18.60;42.50;;;;;;8363511;28;20028;-50
2024/01/30 16:32:33;;;;;;;3.05;0.70;;;18.60;42.70;;;;;;8373262;28;20830;-50
2024/01/30 16:36:33;;;;;;;4.70;1.27;;;18.60;42.90;;;;;;8346176;28;20442;-52
2024/01/30 16:40:34;;;;;;;2.63;1.10;;;18.70;45.30;;;;;;8335752;28;20080;-49
2024/01/30 16:44:35;;;;;;;2.33;0.80;;;18.80;44.50;;;;;;8329766;28;20034;-51
2024/01/30 16:48:35;;;;;;;3.83;1.10;;;18.80;45.00;;;;;;8342433;28;20309;-52
2024/01/30 16:52:36;;;;;;;1.35;1.10;;;18.80;45.10;;;;;;8323679;28;20045;-55
2024/01/30 16:56:37;;;;;;;1.58;1.00;;;18.90;44.50;;;;;;8336512;28;20033;-53
2024/01/30 17:00:38;;;;;;;1.63;0.95;;;18.90;44.90;;;;;;8364218;28;20021;-54
2024/01/30 17:04:39;;;;;;;1.17;0.80;;;18.90;44.90;;;;;;8318071;28;20029;-51
2024/01/30 17:08:40;;;;;;;1.25;1.05;;;18.90;44.60;;;;;;8333474;28;20055;-49
2024/01/30 17:12:40;;;;;;;2.28;1.23;;;18.90;44.70;;;;;;8350328;28;20179;-48
2024/01/30 17:16:41;;;;;;;2.70;1.10;;;19.00;44.80;;;;;;8333172;28;20040;-49
2024/01/30 17:20:42;;;;;;;5.13;1.30;;;19.00;44.60;;;;;;8360640;28;20275;-51
2024/01/30 17:24:43;;;;;;;10.45;1.20;;;19.00;44.60;;;;;;8336716;28;20038;-48
2024/01/30 17:28:43;;;;;;;7.18;1.10;;;19.00;45.00;;;;;;8333222;28;20044;-48
2024/01/30 17:32:44;;;;;;;4.32;1.58;;;19.10;45.80;;;;;;8326320;28;20037;-50
2024/01/30 17:36:45;;;;;;;5.95;1.30;;;19.10;47.00;;;;;;8326969;28;20438;-50
2024/01/30 17:40:45;;;;;;;3.40;1.40;;;19.10;47.10;;;;;;8332767;28;20052;-47
2024/01/30 17:44:46;;;;;;;13.95;2.20;;;19.20;46.80;;;;;;8327467;28;20383;-50
2024/01/30 17:48:49;;;;;;;7.82;1.73;;;19.20;46.80;;;;;;8327946;28;20029;-50
2024/01/30 17:52:52;;;;;;;4.22;1.88;;;19.20;46.00;;;;;;8335463;28;20437;-49
2024/01/30 17:56:53;;;;;;;4.32;1.50;;;19.20;46.10;;;;;;8351552;28;20506;-52
2024/01/30 18:00:54;;;;;;;5.05;1.58;;;19.10;45.00;;;;;;8334029;28;20364;-50
2024/01/30 18:04:54;;;;;;;10.05;2.55;;;19.10;45.90;;;;;;8343252;28;20040;-49
2024/01/30 18:08:56;;;;;;;10.70;2.70;;;19.20;46.20;;;;;;8274430;28;1995744;-51
2024/01/30 18:12:58;;;;;;;7.28;3.08;;;19.10;46.40;;;;;;8344176;28;20037;-50
2024/01/30 18:16:59;;;;;;;16.65;5.75;;;19.00;45.30;;;;;;8337559;28;20044;-50
2024/01/30 18:21:00;;;;;;;23.75;8.73;;;18.70;44.30;;;;;;8324989;28;20116;-53
2024/01/30 18:25:00;;;;;;;20.05;10.43;;;18.50;44.00;;;;;;8351672;28;20043;-52
2024/01/30 18:29:01;;;;;;;17.98;9.18;;;18.40;43.10;;;;;;8357674;28;20037;-51
2024/01/30 18:33:02;;;;;;;18.25;10.32;;;18.20;42.90;;;;;;8360222;28;20032;-51
2024/01/30 18:37:04;;;;;;;19.25;11.32;;;18.20;42.80;;;;;;8347105;28;20064;-49
2024/01/30 18:41:04;;;;;;;;;;;18.10;42.40;;;;;;8336397;28;20116;-52
2024/01/30 18:45:05;;;;;;;21.77;11.73;;;18.10;42.40;;;;;;8349829;28;19916;-52
2024/01/30 18:49:06;;;;;;;22.98;11.80;;;18.10;42.40;;;;;;8336325;28;20399;-53
2024/01/30 18:53:07;;;;;;;24.58;12.88;;;18.10;42.10;;;;;;8348879;28;20106;-49
2024/01/30 18:57:07;;;;;;;23.50;11.57;;;18.30;42.10;;;;;;8332110;28;20051;-52
2024/01/30 19:01:08;;;;;;;20.70;11.60;;;18.50;43.30;;;;;;8328435;28;20087;-53
2024/01/30 19:05:09;;;;;;;19.63;10.13;;;18.70;43.50;;;;;;8328463;28;20039;-55
2024/01/30 19:09:10;;;;;;;24.10;9.77;;;18.90;44.80;;;;;;8330519;28;20836;-54
2024/01/30 19:13:12;;;;;;;18.73;10.32;;;19.10;45.10;;;;;;8318929;28;20045;-50
2024/01/30 19:17:12;;;;;;;21.10;11.07;;;19.10;45.10;;;;;;8339985;28;20037;-50
2024/01/30 19:21:13;;;;;;;18.80;9.35;;;19.10;45.30;;;;;;8349320;28;20041;-50
2024/01/30 19:25:14;;;;;;;20.33;9.45;;;19.20;45.40;;;;;;8349600;28;20430;-49
2024/01/30 19:29:15;;;;;;;17.65;10.05;;;19.20;45.40;;;;;;8331212;28;20065;-48
2024/01/30 19:33:15;;;;;;;17.13;8.95;;;19.20;45.50;;;;;;8339720;28;20384;-54
2024/01/30 19:37:22;;;;;;;24.33;8.95;;;19.30;46.10;;;;;;8311423;28;20380;-54
2024/01/30 19:41:22;;;;;;;13.57;7.97;;;19.40;46.00;;;;;;8334497;28;20133;-48
2024/01/30 19:45:23;;;;;;;16.45;7.80;;;19.50;46.10;;;;;;8324247;28;20037;-50
2024/01/30 19:49:24;;;;;;;20.42;8.70;;;19.50;46.20;;;;;;8312491;28;20056;-51
2024/01/30 19:53:25;;;;;;;13.82;7.72;;;19.50;46.10;;;;;;8337182;28;20037;-49
2024/01/30 19:57:25;;;;;;;12.50;7.20;;;19.50;45.50;;;;;;8335468;28;21564;-50
2024/01/30 20:01:26;;;;;;;15.30;7.75;;;19.40;45.70;;;;;;8333676;28;20040;-49
2024/01/30 20:05:27;;;;;;;18.17;6.90;;;19.50;45.90;;;;;;8334594;28;20478;-48
2024/01/30 20:09:27;;;;;;;25.10;7.78;;;19.40;46.30;;;;;;8342455;28;20049;-52
2024/01/30 20:13:28;;;;;;;28.52;10.07;;;19.50;46.10;;;;;;8344987;28;20375;-49
2024/01/30 20:17:31;;;;;;;27.77;11.80;;;19.30;45.40;;;;;;8347686;28;20040;-50
2024/01/30 20:21:32;;;;;;;24.08;10.00;;;19.00;44.50;;;;;;8343034;28;20025;-49
2024/01/30 20:25:33;;;;;;;20.92;9.43;;;19.10;43.90;;;;;;8336458;28;20026;-52
2024/01/30 20:29:33;;;;;;;19.65;10.07;;;19.20;44.20;;;;;;8333904;28;20394;-50
2024/01/30 20:33:34;;;;;;;24.95;9.90;;;19.30;44.20;;;;;;8331285;28;20132;-52
2024/01/30 20:37:38;;;;;;;30.40;9.55;;;19.40;44.20;;;;;;8327142;28;20029;-54
2024/01/30 20:41:39;;;;;;;18.42;9.43;;;19.50;45.20;;;;;;8332065;28;20663;-55
2024/01/30 20:45:40;;;;;;;14.75;8.90;;;19.60;45.40;;;;;;8344237;28;20036;-52
2024/01/30 20:49:41;;;;;;;18.30;8.10;;;19.70;45.60;;;;;;8327137;28;20033;-47
2024/01/30 20:53:44;;;;;;;21.90;7.75;;;19.70;46.00;;;;;;8333082;28;20043;-49